createdAt,value
2023-03-26T00:01:23.704Z,8.57
2023-03-26T00:03:54.957Z,8.52
2023-03-26T00:06:23.965Z,8.55
2023-03-26T00:08:51.406Z,8.49
2023-03-26T00:11:21.533Z,8.49
2023-03-26T00:13:48.069Z,8.47
2023-03-26T00:16:17.642Z,8.42
2023-03-26T00:18:44.536Z,8.41
2023-03-26T00:21:14.289Z,8.40
2023-03-26T00:23:41.402Z,8.39
2023-03-26T00:26:10.528Z,8.32
2023-03-26T00:28:40.443Z,8.38
2023-03-26T00:31:09.910Z,8.40
2023-03-26T00:33:38.278Z,8.43
2023-03-26T00:36:10.409Z,8.42
2023-03-26T00:38:38.954Z,8.40
2023-03-26T00:41:17.263Z,8.35
2023-03-26T00:43:48.582Z,8.39
2023-03-26T00:46:15.762Z,8.40
2023-03-26T00:48:46.033Z,8.39
2023-03-26T00:51:18.068Z,8.42
2023-03-26T00:53:46.880Z,8.44
2023-03-26T00:56:14.052Z,8.45
2023-03-26T00:58:41.314Z,8.44
2023-03-26T01:01:15.311Z,8.40
2023-03-26T01:03:50.365Z,8.39
2023-03-26T01:06:35.793Z,8.43
2023-03-26T01:09:07.083Z,8.40
2023-03-26T01:11:35.671Z,8.38
2023-03-26T01:14:09.934Z,8.40
2023-03-26T01:16:45.014Z,8.32
2023-03-26T01:19:17.813Z,8.35
2023-03-26T01:21:44.318Z,8.40
2023-03-26T01:24:10.732Z,8.35
2023-03-26T01:27:01.959Z,8.38
2023-03-26T01:29:46.886Z,8.38
2023-03-26T01:32:41.278Z,8.37
2023-03-26T01:35:17.290Z,8.39
2023-03-26T01:37:58.546Z,8.38
2023-03-26T01:40:28.204Z,8.38
2023-03-26T01:43:08.421Z,8.38
2023-03-26T01:45:38.235Z,8.37
2023-03-26T01:48:07.062Z,8.32
2023-03-26T01:50:33.869Z,8.34
2023-03-26T01:53:00.953Z,8.32
2023-03-26T01:55:44.116Z,8.28
2023-03-26T01:58:46.565Z,8.27
2023-03-26T02:01:32.475Z,8.25
2023-03-26T02:04:08.734Z,8.21
2023-03-26T02:06:58.582Z,8.13
2023-03-26T02:09:30.163Z,8.09
2023-03-26T02:11:57.514Z,8.06
2023-03-26T02:14:24.755Z,8.01
2023-03-26T02:16:51.354Z,7.95
2023-03-26T02:19:21.619Z,7.80
2023-03-26T02:21:51.568Z,7.65
2023-03-26T02:24:20.605Z,7.59
2023-03-26T02:26:47.061Z,7.51
2023-03-26T02:29:14.793Z,7.45
2023-03-26T02:31:41.239Z,7.41
2023-03-26T02:34:07.650Z,7.41
2023-03-26T02:36:35.789Z,7.34
2023-03-26T02:39:03.357Z,7.25
2023-03-26T02:41:29.825Z,7.18
2023-03-26T02:43:56.175Z,7.14
2023-03-26T02:46:22.590Z,7.09
2023-03-26T02:48:49.841Z,6.97
2023-03-26T02:51:18.171Z,6.98
2023-03-26T02:53:44.640Z,6.86
2023-03-26T02:56:12.539Z,6.83
2023-03-26T02:58:38.940Z,6.83
2023-03-26T03:01:05.442Z,6.76
2023-03-26T03:03:31.854Z,6.73
2023-03-26T03:05:58.320Z,6.74
2023-03-26T03:08:26.823Z,6.65
2023-03-26T03:11:02.961Z,6.61
2023-03-26T03:13:29.813Z,6.51
2023-03-26T03:15:56.554Z,6.53
2023-03-26T03:18:23.213Z,6.48
2023-03-26T03:20:49.985Z,6.49
2023-03-26T03:23:16.601Z,6.44
2023-03-26T03:25:43.228Z,6.43
2023-03-26T03:28:09.656Z,6.48
2023-03-26T03:30:36.294Z,6.46
2023-03-26T03:33:03.244Z,6.50
2023-03-26T03:35:30.664Z,6.37
2023-03-26T03:37:58.213Z,6.43
2023-03-26T03:40:25.092Z,6.44
2023-03-26T03:42:51.528Z,6.44
2023-03-26T03:45:18.867Z,6.50
2023-03-26T03:47:45.494Z,6.53
2023-03-26T03:50:11.920Z,6.51
2023-03-26T03:52:38.352Z,6.52
2023-03-26T03:55:05.429Z,6.49
2023-03-26T03:57:33.489Z,6.54
2023-03-26T04:00:00.100Z,6.54
2023-03-26T04:02:30.228Z,6.54
2023-03-26T04:05:00.063Z,6.57
2023-03-26T04:07:27.936Z,6.59
2023-03-26T04:09:54.306Z,6.62
2023-03-26T04:12:20.675Z,6.65
2023-03-26T04:14:47.076Z,6.71
2023-03-26T04:17:13.560Z,6.66
2023-03-26T04:19:40.462Z,6.70
2023-03-26T04:22:07.040Z,6.66
2023-03-26T04:24:42.285Z,6.65
2023-03-26T04:27:14.298Z,6.72
2023-03-26T04:29:43.103Z,6.75
2023-03-26T04:32:22.732Z,6.76
2023-03-26T04:34:49.107Z,6.80
2023-03-26T04:37:39.981Z,6.84
2023-03-26T04:40:15.301Z,6.86
2023-03-26T04:42:45.840Z,6.86
2023-03-26T04:45:17.716Z,6.86
2023-03-26T04:47:46.214Z,6.91
2023-03-26T04:50:12.737Z,6.86
2023-03-26T04:52:39.528Z,6.93
2023-03-26T04:55:13.726Z,6.95
2023-03-26T04:57:46.180Z,7.00
2023-03-26T05:00:17.293Z,7.03
2023-03-26T05:02:43.748Z,7.04
2023-03-26T05:05:10.734Z,6.98
2023-03-26T05:07:37.442Z,7.06
2023-03-26T05:10:05.449Z,7.13
2023-03-26T05:12:31.811Z,7.18
2023-03-26T05:14:58.224Z,7.19
2023-03-26T05:17:25.046Z,7.27
2023-03-26T05:19:52.011Z,7.30
2023-03-26T05:22:18.974Z,7.31
2023-03-26T05:24:45.434Z,7.33
2023-03-26T05:27:16.963Z,7.34
2023-03-26T05:29:43.785Z,7.40
2023-03-26T05:32:10.919Z,7.40
2023-03-26T05:34:39.572Z,7.43
2023-03-26T05:37:06.805Z,7.42
2023-03-26T05:39:33.581Z,7.43
2023-03-26T05:41:59.963Z,7.45
2023-03-26T05:44:26.416Z,7.46
2023-03-26T05:46:52.812Z,7.47
2023-03-26T05:49:19.200Z,7.45
2023-03-26T05:51:45.600Z,7.44
2023-03-26T05:54:12.104Z,7.46
2023-03-26T05:56:38.529Z,7.45
2023-03-26T05:59:04.925Z,7.51
2023-03-26T06:01:31.356Z,7.51
2023-03-26T06:03:57.843Z,7.46
2023-03-26T06:06:24.475Z,7.52
2023-03-26T06:09:01.101Z,7.54
2023-03-26T06:11:28.936Z,7.57
2023-03-26T06:13:55.269Z,7.56
2023-03-26T06:16:27.168Z,7.58
2023-03-26T06:18:56.750Z,7.61
2023-03-26T06:21:27.683Z,7.58
2023-03-26T06:23:54.501Z,7.58
2023-03-26T06:26:21.379Z,7.59
2023-03-26T06:28:47.768Z,7.62
2023-03-26T06:31:14.268Z,7.59
2023-03-26T06:33:40.664Z,7.63
2023-03-26T06:36:07.414Z,7.67
2023-03-26T06:38:33.877Z,7.61
2023-03-26T06:41:05.399Z,7.66
2023-03-26T06:43:33.663Z,7.68
2023-03-26T06:46:01.582Z,7.66
2023-03-26T06:48:28.324Z,7.65
2023-03-26T06:50:55.430Z,7.63
2023-03-26T06:53:22.038Z,7.64
2023-03-26T06:55:48.472Z,7.66
2023-03-26T06:58:14.804Z,7.65
2023-03-26T07:00:42.274Z,7.64
2023-03-26T07:03:08.705Z,7.68
2023-03-26T07:05:35.330Z,7.63
2023-03-26T07:08:03.001Z,7.67
2023-03-26T07:10:29.482Z,7.66
2023-03-26T07:12:56.074Z,7.68
2023-03-26T07:15:22.462Z,7.62
2023-03-26T07:17:49.030Z,7.69
2023-03-26T07:20:15.549Z,7.71
2023-03-26T07:22:42.188Z,7.71
2023-03-26T07:25:09.460Z,7.78
2023-03-26T07:27:46.444Z,7.80
2023-03-26T07:30:23.627Z,7.85
2023-03-26T07:33:01.980Z,7.83
2023-03-26T07:35:36.857Z,7.87
2023-03-26T07:38:19.187Z,7.78
2023-03-26T07:40:55.741Z,7.80
2023-03-26T07:43:30.888Z,7.91
2023-03-26T07:45:57.764Z,7.83
2023-03-26T07:48:27.363Z,7.87
2023-03-26T07:50:55.853Z,7.92
2023-03-26T07:53:23.403Z,7.95
2023-03-26T07:56:01.403Z,7.94
2023-03-26T07:58:46.276Z,7.95
2023-03-26T08:01:43.043Z,7.93
2023-03-26T08:04:24.204Z,8.05
2023-03-26T08:07:03.404Z,8.07
2023-03-26T08:09:38.310Z,8.06
2023-03-26T08:12:36.638Z,8.01
2023-03-26T08:15:07.949Z,7.99
2023-03-26T08:17:56.300Z,7.98
2023-03-26T08:20:30.965Z,8.00
2023-03-26T08:23:06.778Z,8.06
2023-03-26T08:26:02.452Z,8.05
2023-03-26T08:28:46.091Z,8.00
2023-03-26T08:31:15.270Z,7.98
2023-03-26T08:33:41.771Z,8.15
2023-03-26T08:36:09.175Z,8.06
2023-03-26T08:38:35.632Z,8.08
2023-03-26T08:41:11.273Z,8.02
2023-03-26T08:44:13.469Z,8.01
2023-03-26T08:47:09.067Z,8.04
2023-03-26T08:49:55.821Z,8.02
2023-03-26T08:52:59.746Z,8.04
2023-03-26T08:55:45.018Z,8.14
2023-03-26T08:58:37.743Z,8.16
2023-03-26T09:01:23.512Z,8.11
2023-03-26T09:04:27.819Z,8.12
2023-03-26T09:07:12.202Z,8.18
2023-03-26T09:10:15.757Z,8.18
2023-03-26T09:13:19.908Z,8.16
2023-03-26T09:16:06.442Z,8.15
2023-03-26T09:18:58.985Z,8.11
2023-03-26T09:21:31.603Z,8.04
2023-03-26T09:24:06.969Z,8.01
2023-03-26T09:26:50.582Z,8.03
2023-03-26T09:29:42.183Z,8.03
2023-03-26T09:32:36.814Z,8.01
2023-03-26T09:35:13.979Z,7.97
2023-03-26T09:38:26.572Z,7.78
2023-03-26T09:41:06.008Z,7.74
2023-03-26T09:43:36.178Z,7.80
2023-03-26T09:46:26.944Z,7.78
2023-03-26T09:48:57.152Z,7.68
2023-03-26T09:51:44.739Z,7.66
2023-03-26T09:54:50.825Z,7.61
2023-03-26T09:57:36.036Z,7.62
2023-03-26T10:00:32.055Z,7.62
2023-03-26T10:03:12.029Z,7.57
2023-03-26T10:06:00.546Z,7.63
2023-03-26T10:08:49.543Z,7.63
2023-03-26T10:11:23.720Z,7.67
2023-03-26T10:14:03.659Z,7.60
2023-03-26T10:16:41.696Z,7.68
2023-03-26T10:19:41.735Z,7.63
2023-03-26T10:22:27.885Z,7.62
2023-03-26T10:25:21.008Z,7.67
2023-03-26T10:28:03.023Z,7.59
2023-03-26T10:30:53.339Z,7.56
2023-03-26T10:33:37.478Z,7.65
2023-03-26T10:36:26.738Z,7.77
2023-03-26T10:39:37.303Z,7.79
2023-03-26T10:42:14.374Z,7.78
2023-03-26T10:45:02.434Z,7.88
2023-03-26T10:47:47.671Z,7.88
2023-03-26T10:50:29.225Z,7.87
2023-03-26T10:53:25.748Z,7.94
2023-03-26T10:55:56.372Z,8.00
2023-03-26T10:58:29.397Z,8.03
2023-03-26T11:01:32.405Z,8.05
2023-03-26T11:04:10.911Z,8.06
2023-03-26T11:06:54.777Z,8.15
2023-03-26T11:09:39.927Z,8.27
2023-03-26T11:12:26.157Z,8.33
2023-03-26T11:15:08.746Z,8.38
2023-03-26T11:17:59.043Z,8.43
2023-03-26T11:20:45.201Z,8.46
2023-03-26T11:23:37.767Z,8.46
2023-03-26T11:26:31.842Z,8.49
2023-03-26T11:29:31.896Z,8.52
2023-03-26T11:32:11.637Z,8.51
2023-03-26T11:34:58.536Z,8.57
2023-03-26T11:37:52.226Z,8.55
2023-03-26T11:40:25.586Z,8.51
2023-03-26T11:42:58.449Z,8.46
2023-03-26T11:45:29.612Z,8.47
2023-03-26T11:48:12.714Z,8.51
2023-03-26T11:50:45.416Z,8.44
2023-03-26T11:53:14.682Z,8.50
2023-03-26T11:55:54.680Z,8.35
2023-03-26T11:58:31.157Z,8.47
2023-03-26T12:00:57.724Z,8.35
2023-03-26T12:03:24.333Z,8.36
2023-03-26T12:05:57.924Z,8.49
2023-03-26T12:08:33.002Z,8.49
2023-03-26T12:11:01.490Z,8.52
2023-03-26T12:13:36.736Z,8.50
2023-03-26T12:16:19.459Z,8.48
2023-03-26T12:18:57.300Z,8.50
2023-03-26T12:21:23.741Z,8.37
2023-03-26T12:23:59.767Z,8.33
2023-03-26T12:26:44.760Z,8.47
2023-03-26T12:29:14.188Z,8.43
2023-03-26T12:32:15.779Z,8.64
2023-03-26T12:34:42.310Z,8.73
2023-03-26T12:37:36.807Z,8.65
2023-03-26T12:40:35.956Z,8.47
2023-03-26T12:44:49.556Z,8.57
2023-03-26T12:46:03.719Z,8.62
2023-03-26T12:48:43.538Z,8.78
2023-03-26T12:51:29.228Z,8.54
2023-03-26T12:54:15.075Z,8.54
2023-03-26T12:57:12.518Z,8.54
2023-03-26T13:00:10.840Z,8.54
2023-03-26T13:02:59.989Z,8.60
2023-03-26T13:05:47.429Z,8.48
2023-03-26T13:08:20.897Z,8.46
2023-03-26T13:10:57.102Z,8.53
2023-03-26T13:13:41.562Z,8.46
2023-03-26T13:16:12.743Z,8.49
2023-03-26T13:18:51.820Z,8.37
2023-03-26T13:21:37.406Z,8.24
2023-03-26T13:24:12.965Z,8.42
2023-03-26T13:27:17.148Z,8.38
2023-03-26T13:30:04.791Z,8.38
2023-03-26T13:32:48.978Z,8.10
2023-03-26T13:35:25.903Z,8.36
2023-03-26T13:38:05.618Z,8.59
2023-03-26T13:40:47.454Z,8.64
2023-03-26T13:43:25.628Z,8.71
2023-03-26T13:45:59.531Z,8.95
2023-03-26T13:48:30.955Z,9.11
2023-03-26T13:51:08.186Z,9.12
2023-03-26T13:53:47.129Z,9.26
2023-03-26T13:56:17.477Z,9.27
2023-03-26T13:58:53.725Z,9.45
2023-03-26T14:01:33.631Z,9.60
2023-03-26T14:04:08.414Z,9.45
2023-03-26T14:06:58.401Z,9.50
2023-03-26T14:10:11.725Z,9.59
2023-03-26T14:12:56.178Z,9.66
2023-03-26T14:15:47.130Z,9.43
2023-03-26T14:18:27.350Z,9.20
2023-03-26T14:20:59.743Z,9.33
2023-03-26T14:23:48.826Z,9.50
2023-03-26T14:26:40.380Z,9.52
2023-03-26T14:29:12.589Z,9.51
2023-03-26T14:32:00.410Z,9.63
2023-03-26T14:34:56.092Z,9.72
2023-03-26T14:37:44.347Z,9.54
2023-03-26T14:40:16.948Z,9.72
2023-03-26T14:43:07.978Z,9.73
2023-03-26T14:45:49.272Z,9.83
2023-03-26T14:48:31.444Z,9.77
2023-03-26T14:51:19.556Z,9.80
2023-03-26T14:53:53.134Z,9.88
2023-03-26T14:56:49.350Z,9.68
2023-03-26T14:59:24.739Z,9.59
2023-03-26T15:02:42.207Z,9.64
2023-03-26T15:05:23.911Z,9.60
2023-03-26T15:08:02.433Z,9.67
2023-03-26T15:10:59.697Z,9.69
2023-03-26T15:13:59.993Z,9.68
2023-03-26T15:16:41.222Z,9.59
2023-03-26T15:19:29.425Z,9.32
2023-03-26T15:22:21.042Z,9.35
2023-03-26T15:25:08.407Z,9.19
2023-03-26T15:27:49.103Z,9.18
2023-03-26T15:30:58.340Z,9.16
2023-03-26T15:33:45.605Z,9.22
2023-03-26T15:36:39.399Z,9.19
2023-03-26T15:39:30.035Z,9.19
2023-03-26T15:42:07.398Z,9.01
2023-03-26T15:44:53.765Z,8.92
2023-03-26T15:47:39.110Z,8.96
2023-03-26T15:50:26.985Z,8.84
2023-03-26T15:53:18.457Z,8.74
2023-03-26T15:56:19.172Z,8.63
2023-03-26T15:59:11.935Z,8.52
2023-03-26T16:02:02.510Z,8.55
2023-03-26T16:04:57.305Z,8.56
2023-03-26T16:07:43.692Z,8.56
2023-03-26T16:10:29.594Z,8.51
2023-03-26T16:13:27.089Z,8.38
2023-03-26T16:15:56.975Z,8.37
2023-03-26T16:18:51.617Z,8.49
2023-03-26T16:21:36.416Z,8.56
2023-03-26T16:24:02.924Z,8.54
2023-03-26T16:26:44.516Z,8.34
2023-03-26T16:29:18.069Z,8.18
2023-03-26T16:31:58.280Z,8.18
2023-03-26T16:34:36.722Z,8.12
2023-03-26T16:37:08.835Z,8.20
2023-03-26T16:39:39.723Z,8.23
2023-03-26T16:42:14.907Z,8.12
2023-03-26T16:45:12.317Z,8.12
2023-03-26T16:47:47.011Z,8.07
2023-03-26T16:50:42.145Z,8.10
2023-03-26T16:53:24.045Z,8.09
2023-03-26T16:55:59.370Z,7.98
2023-03-26T16:58:30.272Z,7.77
2023-03-26T17:01:22.477Z,7.75
2023-03-26T17:03:49.113Z,7.59
2023-03-26T17:06:34.670Z,7.54
2023-03-26T17:09:01.210Z,7.62
2023-03-26T17:11:42.816Z,7.51
2023-03-26T17:14:32.398Z,7.68
2023-03-26T17:17:23.277Z,7.74
2023-03-26T17:20:13.318Z,7.54
2023-03-26T17:22:46.069Z,7.52
2023-03-26T17:25:22.478Z,7.51
2023-03-26T17:28:09.883Z,7.43
2023-03-26T17:31:04.430Z,7.52
2023-03-26T17:33:34.752Z,7.45
2023-03-26T17:36:20.049Z,7.44
2023-03-26T17:38:46.391Z,7.38
2023-03-26T17:41:15.864Z,7.36
2023-03-26T17:43:52.703Z,7.33
2023-03-26T17:46:37.174Z,7.31
2023-03-26T17:49:12.689Z,7.34
2023-03-26T17:51:51.341Z,7.39
2023-03-26T17:54:24.320Z,7.37
2023-03-26T17:56:53.290Z,7.41
2023-03-26T17:59:23.608Z,7.45
2023-03-26T18:01:57.524Z,7.45
2023-03-26T18:04:53.577Z,7.44
2023-03-26T18:07:33.904Z,7.40
2023-03-26T18:10:39.033Z,7.40
2023-03-26T18:13:38.252Z,7.43
2023-03-26T18:16:31.030Z,7.43
2023-03-26T18:18:59.569Z,7.43
2023-03-26T18:21:38.127Z,7.44
2023-03-26T18:24:06.670Z,7.47
2023-03-26T18:26:37.411Z,7.53
2023-03-26T18:29:27.598Z,7.37
2023-03-26T18:32:00.641Z,7.39
2023-03-26T18:34:31.557Z,7.36
2023-03-26T18:37:18.916Z,7.32
2023-03-26T18:40:11.693Z,7.28
2023-03-26T18:42:45.163Z,7.20
2023-03-26T18:45:26.211Z,7.23
2023-03-26T18:47:54.802Z,7.17
2023-03-26T18:50:30.964Z,7.08
2023-03-26T18:53:00.386Z,7.11
2023-03-26T18:55:29.316Z,6.98
2023-03-26T18:57:57.090Z,6.87
2023-03-26T19:00:27.738Z,6.95
2023-03-26T19:03:05.862Z,6.91
2023-03-26T19:05:36.512Z,6.80
2023-03-26T19:08:05.564Z,6.76
2023-03-26T19:10:33.323Z,6.76
2023-03-26T19:13:04.187Z,6.81
2023-03-26T19:15:32.653Z,6.70
2023-03-26T19:18:07.131Z,6.72
2023-03-26T19:20:42.022Z,6.62
2023-03-26T19:23:13.898Z,6.79
2023-03-26T19:25:43.497Z,6.64
2023-03-26T19:28:23.776Z,6.70
2023-03-26T19:30:57.710Z,6.78
2023-03-26T19:33:32.315Z,6.74
2023-03-26T19:36:05.870Z,6.77
2023-03-26T19:38:44.092Z,6.74
2023-03-26T19:41:38.932Z,6.79
2023-03-26T19:44:28.511Z,6.84
2023-03-26T19:47:03.695Z,6.79
2023-03-26T19:49:32.506Z,6.79
2023-03-26T19:52:14.758Z,6.65
2023-03-26T19:55:15.281Z,6.74
2023-03-26T19:57:41.706Z,6.65
2023-03-26T20:00:13.210Z,6.68
2023-03-26T20:02:45.304Z,6.62
2023-03-26T20:05:19.282Z,6.58
2023-03-26T20:07:45.643Z,6.48
2023-03-26T20:10:12.376Z,6.45
2023-03-26T20:12:38.758Z,6.44
2023-03-26T20:15:20.029Z,6.55
2023-03-26T20:17:49.910Z,6.46
2023-03-26T20:20:17.413Z,6.44
2023-03-26T20:22:46.103Z,6.42
2023-03-26T20:25:20.495Z,6.39
2023-03-26T20:27:46.985Z,6.37
2023-03-26T20:30:16.429Z,6.26
2023-03-26T20:32:45.734Z,6.25
2023-03-26T20:35:35.647Z,6.10
2023-03-26T20:38:03.025Z,6.04
2023-03-26T20:40:29.674Z,6.03
2023-03-26T20:42:56.118Z,6.17
2023-03-26T20:45:23.812Z,6.12
2023-03-26T20:47:50.716Z,6.19
2023-03-26T20:50:23.106Z,5.94
2023-03-26T20:52:50.195Z,6.02
2023-03-26T20:55:21.225Z,6.10
2023-03-26T20:57:48.555Z,5.96
2023-03-26T21:00:19.235Z,5.95
2023-03-26T21:02:53.548Z,6.04
2023-03-26T21:05:25.753Z,5.88
2023-03-26T21:07:57.375Z,5.95
2023-03-26T21:10:29.470Z,5.97
2023-03-26T21:13:27.165Z,5.82
2023-03-26T21:15:53.802Z,5.83
2023-03-26T21:18:20.683Z,5.73
2023-03-26T21:21:03.175Z,5.62
2023-03-26T21:23:43.439Z,5.68
2023-03-26T21:26:18.869Z,5.64
2023-03-26T21:28:48.423Z,5.55
2023-03-26T21:31:18.823Z,5.51
2023-03-26T21:33:46.467Z,5.62
2023-03-26T21:36:13.396Z,5.51
2023-03-26T21:38:43.129Z,5.39
2023-03-26T21:41:30.795Z,5.46
2023-03-26T21:43:59.455Z,5.39
2023-03-26T21:46:26.169Z,5.30
2023-03-26T21:48:52.867Z,5.22
2023-03-26T21:51:19.472Z,5.25
2023-03-26T21:53:46.329Z,5.21
2023-03-26T21:56:43.499Z,5.11
2023-03-26T21:59:30.412Z,5.23
2023-03-26T22:02:21.355Z,5.12
2023-03-26T22:04:53.681Z,5.06
2023-03-26T22:07:48.675Z,4.90
2023-03-26T22:10:15.155Z,4.97
2023-03-26T22:12:42.026Z,4.92
2023-03-26T22:15:08.822Z,4.76
2023-03-26T22:17:35.671Z,4.85
2023-03-26T22:20:07.748Z,4.75
2023-03-26T22:22:34.550Z,4.77
2023-03-26T22:25:01.133Z,4.63
2023-03-26T22:27:27.463Z,4.55
2023-03-26T22:29:54.235Z,4.63
2023-03-26T22:32:21.176Z,4.61
2023-03-26T22:34:47.550Z,4.57
2023-03-26T22:37:14.400Z,4.52
2023-03-26T22:39:40.744Z,4.38
2023-03-26T22:42:07.125Z,4.31
2023-03-26T22:44:33.525Z,4.39
2023-03-26T22:47:01.289Z,4.40
2023-03-26T22:49:30.046Z,4.35
2023-03-26T22:51:57.035Z,4.11
2023-03-26T22:54:23.379Z,4.23
2023-03-26T22:56:52.134Z,4.18
2023-03-26T22:59:18.651Z,4.16
2023-03-26T23:01:45.766Z,4.20
2023-03-26T23:04:12.787Z,4.15
2023-03-26T23:06:57.813Z,4.07
2023-03-26T23:09:26.755Z,3.98
2023-03-26T23:11:53.281Z,4.00
2023-03-26T23:14:19.666Z,4.02
2023-03-26T23:16:45.994Z,3.92
2023-03-26T23:19:12.397Z,3.93
2023-03-26T23:21:38.902Z,3.95
2023-03-26T23:24:05.766Z,3.92
2023-03-26T23:26:49.725Z,3.92
2023-03-26T23:29:17.261Z,3.93
2023-03-26T23:31:43.631Z,3.84
2023-03-26T23:34:10.919Z,3.77
2023-03-26T23:36:37.393Z,3.79
2023-03-26T23:39:04.682Z,3.74
2023-03-26T23:41:31.249Z,3.77
2023-03-26T23:43:57.628Z,3.71
2023-03-26T23:46:30.011Z,3.68
2023-03-26T23:49:02.071Z,3.56
2023-03-26T23:51:30.100Z,3.65
2023-03-26T23:53:56.972Z,3.66
2023-03-26T23:56:23.686Z,3.71
2023-03-26T23:58:50.258Z,3.59
